| time (UTC) | temp C | wind direction | speed KPH | gust KPH | rain 1hr cm | rain 24hr cm | rain mn cm | humidity % | barometer mb |
| 20260906034552 | 25 | 24 | 6.4 | 9.7 | 0.00 | 0.00 | 0.00 | 86 | 1011.5 |
| 20260906033052 | 26 | 350 | 8.0 | 12.9 | 0.00 | 0.00 | 0.00 | 85 | 1011.2 |
| 20260906031551 | 26 | 344 | 8.0 | 14.5 | 0.00 | 0.00 | 0.00 | 85 | 1011.0 |
| 20260906030052 | 26 | 14 | 6.4 | 14.5 | 0.00 | 0.00 | 0.00 | 84 | 1010.7 |
| 20260906024550 | 26 | 360 | 9.7 | 16.1 | 0.00 | 0.00 | 0.00 | 84 | 1010.5 |
| 20260906023104 | 26 | 350 | 11.3 | 17.7 | 0.00 | 0.00 | 0.00 | 83 | 1010.2 |
| 20260906021549 | 26 | 355 | 12.9 | 16.1 | 0.00 | 0.00 | 0.00 | 84 | 1010.0 |
| 20260906020048 | 26 | 26 | 11.3 | 17.7 | 0.00 | 0.00 | 0.00 | 83 | 1009.9 |
| 20260906014559 | 26 | 5 | 11.3 | 16.1 | 0.00 | 0.00 | 0.00 | 83 | 1009.7 |
| 20260906013047 | 26 | 30 | 8.0 | 17.7 | 0.00 | 0.00 | 0.00 | 83 | 1009.8 |
| 20260906011553 | 26 | 346 | 16.1 | 24.1 | 0.00 | 0.00 | 0.00 | 83 | 1009.5 |
| 20260906010046 | 26 | 5 | 11.3 | 17.7 | 0.00 | 0.00 | 0.00 | 82 | 1009.6 |
| 20260906004546 | 26 | 30 | 14.5 | 24.1 | 0.00 | 0.00 | 0.00 | 80 | 1009.4 |
| 20260906003049 | 26 | 360 | 12.9 | 24.1 | 0.00 | 0.00 | 0.00 | 79 | 1009.4 |
| 20260906001544 | 27 | 20 | 14.5 | 29.0 | 0.00 | 0.00 | 0.00 | 79 | 1009.4 |
| 20260906000044 | 27 | 348 | 22.5 | 35.4 | 0.00 | 0.00 | 0.00 | 76 | 1009.5 |
| 20260905234553 | 28 | 47 | 24.1 | 38.6 | 0.00 | 0.00 | 0.00 | 72 | 1009.3 |
| 20260905233041 | 31 | 355 | 25.7 | 38.6 | 0.00 | 0.00 | 0.00 | 65 | 1009.4 |
| 20260905231541 | 31 | 272 | 6.4 | 16.1 | 0.00 | 0.00 | 0.00 | 70 | 1009.3 |
| 20260905230043 | 32 | 254 | 8.0 | 17.7 | 0.00 | 0.00 | 0.00 | 69 | 1009.1 |
| 20260905224543 | 32 | 249 | 6.4 | 16.1 | 0.00 | 0.00 | 0.00 | 68 | 1008.9 |
| 20260905223039 | 34 | 275 | 9.7 | 17.7 | 0.00 | 0.00 | 0.00 | 64 | 1008.7 |
| 20260905221541 | 35 | 267 | 6.4 | 14.5 | 0.00 | 0.00 | 0.00 | 67 | 1008.6 |
| 20260905220036 | 35 | 281 | 3.2 | 12.9 | 0.00 | 0.00 | 0.00 | 66 | 1008.9 |
| 20260905214534 | 35 | 232 | 3.2 | 11.3 | 0.00 | 0.00 | 0.00 | 66 | 1009.1 |
| 20260905213031 | 35 | 213 | 1.6 | 9.7 | 0.00 | 0.00 | 0.00 | 66 | 1009.3 |
| 20260905211529 | 35 | 266 | 1.6 | 12.9 | 0.00 | 0.00 | 0.00 | 65 | 1009.7 |
| 20260905210026 | 35 | 197 | 4.8 | 12.9 | 0.00 | 0.00 | 0.00 | 65 | 1009.8 |
| 20260905204523 | 35 | 259 | 1.6 | 6.4 | 0.00 | 0.00 | 0.00 | 67 | 1010.0 |
| 20260905203020 | 34 | 202 | 0.0 | 6.4 | 0.00 | 0.00 | 0.00 | 70 | 1010.1 |
| 20260905201520 | 33 | 219 | 1.6 | 9.7 | 0.00 | 0.00 | 0.00 | 70 | 1010.4 |
| 20260905200015 | 32 | 162 | 4.8 | 11.3 | 0.00 | 0.00 | 0.00 | 70 | 1010.6 |
| 20260905194515 | 32 | 173 | 9.7 | 12.9 | 0.00 | 0.00 | 0.00 | 70 | 1010.9 |
| 20260905193018 | 32 | 158 | 9.7 | 14.5 | 0.00 | 0.00 | 0.00 | 65 | 1011.1 |
| 20260905191514 | 31 | 154 | 9.7 | 14.5 | 0.00 | 0.00 | 0.00 | 66 | 1011.4 |
| 20260905190036 | 30 | 109 | 4.8 | 14.5 | 0.00 | 0.00 | 0.00 | 67 | 1011.6 |
| 20260905184513 | 29 | 74 | 9.7 | 20.9 | 0.00 | 0.00 | 0.00 | 69 | 1012.0 |
| 20260905183015 | 30 | 88 | 9.7 | 24.1 | 0.00 | 0.00 | 0.00 | 68 | 1012.1 |
| 20260905181516 | 31 | 97 | 11.3 | 17.7 | 0.00 | 0.00 | 0.00 | 66 | 1012.2 |
| 20260905180018 | 31 | 87 | 8.0 | 19.3 | 0.00 | 0.00 | 0.00 | 68 | 1012.4 |
| 20260905174511 | 30 | 50 | 3.2 | 8.0 | 0.00 | 0.00 | 0.00 | 76 | 1012.3 |
| 20260905173011 | 29 | 57 | 8.0 | 19.3 | 0.00 | 0.00 | 0.00 | 71 | 1012.5 |
| 20260905171510 | 30 | 38 | 12.9 | 22.5 | 0.00 | 0.00 | 0.00 | 68 | 1012.6 |
| 20260905170009 | 31 | 49 | 6.4 | 16.1 | 0.00 | 0.00 | 0.00 | 67 | 1012.6 |
| 20260905164507 | 33 | 9 | 6.4 | 11.3 | 0.00 | 0.00 | 0.00 | 67 | 1012.4 |
| 20260905163009 | 33 | 22 | 4.8 | 11.3 | 0.00 | 0.00 | 0.00 | 66 | 1012.3 |
| 20260905161503 | 32 | 360 | 9.7 | 14.5 | 0.00 | 0.00 | 0.00 | 67 | 1012.3 |
| 20260905160119 | 32 | 360 | 9.7 | 14.5 | 0.00 | 0.00 | 0.00 | 71 | 1012.3 |
| 20260905154555 | 31 | 349 | 12.9 | 17.7 | 0.00 | 0.00 | 0.00 | 73 | 1012.4 |
| 20260905153059 | 30 | 25 | 9.7 | 14.5 | 0.00 | 0.00 | 0.00 | 77 | 1012.4 |
| 20260905151548 | 28 | 355 | 8.0 | 12.9 | 0.00 | 0.00 | 0.00 | 83 | 1012.4 |
| 20260905150046 | 27 | 346 | 4.8 | 8.0 | 0.00 | 0.00 | 0.00 | 85 | 1012.4 |
| 20260905144548 | 27 | 360 | 4.8 | 6.4 | 0.00 | 0.00 | 0.00 | 87 | 1012.3 |
| 20260905143044 | 26 | 338 | 3.2 | 6.4 | 0.00 | 0.00 | 0.00 | 87 | 1012.3 |
| 20260905141549 | 26 | 343 | 3.2 | 8.0 | 0.00 | 0.00 | 0.00 | 87 | 1012.2 |
| 20260905140041 | 26 | 360 | 4.8 | 8.0 | 0.00 | 0.00 | 0.00 | 88 | 1012.0 |
| 20260905140026 | 26 | 340 | 4.8 | 8.0 | 0.00 | 0.00 | 0.00 | 88 | 1012.0 |
| 20260905134540 | 26 | 336 | 3.2 | 4.8 | 0.00 | 0.00 | 0.00 | 88 | 1011.7 |
| 20260905133039 | 26 | 350 | 4.8 | 6.4 | 0.00 | 0.00 | 0.00 | 87 | 1011.4 |
| 20260905131556 | 26 | 302 | 4.8 | 6.4 | 0.00 | 0.00 | 0.00 | 87 | 1011.3 |
| 20260905130044 | 26 | 328 | 4.8 | 6.4 | 0.00 | 0.00 | 0.00 | 88 | 1011.1 |
| 20260905124538 | 26 | 342 | 3.2 | 8.0 | 0.00 | 0.00 | 0.00 | 88 | 1010.8 |
| 20260905123036 | 26 | 324 | 4.8 | 8.0 | 0.00 | 0.00 | 0.00 | 88 | 1010.6 |
| 20260905121538 | 26 | 355 | 3.2 | 4.8 | 0.00 | 0.00 | 0.00 | 88 | 1010.6 |
| 20260905120039 | 26 | 5 | 3.2 | 6.4 | 0.00 | 0.00 | 0.00 | 87 | 1010.6 |
| 20260905114533 | 26 | 350 | 6.4 | 8.0 | 0.00 | 0.00 | 0.00 | 88 | 1010.6 |
| 20260905113032 | 26 | 337 | 4.8 | 6.4 | 0.00 | 0.00 | 0.00 | 88 | 1010.7 |
| 20260905111551 | 26 | 355 | 4.8 | 6.4 | 0.00 | 0.00 | 0.00 | 88 | 1010.7 |
| 20260905104527 | 26 | 355 | 3.2 | 6.4 | 0.00 | 0.00 | 0.00 | 88 | 1010.6 |
| 20260905103123 | 26 | 360 | 4.8 | 6.4 | 0.00 | 0.00 | 0.00 | 87 | 1010.4 |
| 20260905101549 | 26 | 336 | 4.8 | 8.0 | 0.00 | 0.00 | 0.00 | 86 | 1010.5 |
| 20260905094544 | 26 | 349 | 3.2 | 6.4 | 0.00 | 0.00 | 0.00 | 86 | 1010.8 |
| 20260905093044 | 26 | 336 | 3.2 | 4.8 | 0.00 | 0.00 | 0.00 | 86 | 1010.7 |
| 20260905091541 | 26 | 342 | 4.8 | 8.0 | 0.00 | 0.00 | 0.00 | 86 | 1010.6 |
| 20260905090040 | 26 | 346 | 3.2 | 4.8 | 0.00 | 0.00 | 0.00 | 86 | 1010.8 |
| 20260905084538 | 27 | 336 | 4.8 | 6.4 | 0.00 | 0.00 | 0.00 | 85 | 1010.9 |
| 20260905083035 | 27 | 355 | 3.2 | 6.4 | 0.00 | 0.00 | 0.00 | 85 | 1011.4 |
| 20260905081533 | 27 | 323 | 3.2 | 8.0 | 0.00 | 0.00 | 0.00 | 84 | 1011.4 |
| 20260905080032 | 27 | 320 | 3.2 | 6.4 | 0.00 | 0.00 | 0.00 | 83 | 1011.7 |
| 20260905074531 | 27 | 355 | 3.2 | 3.2 | 0.00 | 0.00 | 0.00 | 83 | 1012.0 |
| 20260905073034 | 27 | 355 | 0.0 | 4.8 | 0.00 | 0.00 | 0.00 | 82 | 1011.7 |
| 20260905071538 | 28 | 360 | 3.2 | 6.4 | 0.00 | 0.00 | 0.00 | 81 | 1011.4 |
| 20260905070022 | 28 | 336 | 4.8 | 8.0 | 0.00 | 0.00 | 0.00 | 80 | 1011.3 |
| 20260905064521 | 28 | 346 | 3.2 | 8.0 | 0.00 | 0.00 | 0.00 | 78 | 1011.2 |
| 20260905063021 | 29 | 308 | 8.0 | 16.1 | 0.00 | 0.00 | 0.00 | 78 | 1011.5 |
| 20260905061528 | 29 | 302 | 8.0 | 16.1 | 0.00 | 0.00 | 0.00 | 78 | 1011.5 |
| 20260905060020 | 29 | 320 | 6.4 | 14.5 | 0.00 | 0.00 | 0.00 | 78 | 1011.5 |
| 20260905054537 | 29 | 314 | 12.9 | 20.9 | 0.00 | 0.00 | 0.00 | 78 | 1011.5 |
| 20260905053019 | 29 | 322 | 9.7 | 19.3 | 0.00 | 0.00 | 0.00 | 79 | 1011.7 |
| 20260905051520 | 28 | 298 | 8.0 | 14.5 | 0.00 | 0.00 | 0.00 | 80 | 1011.9 |
| 20260905050018 | 29 | 324 | 6.4 | 11.3 | 0.00 | 0.00 | 0.00 | 80 | 1011.9 |
| 20260905044521 | 29 | 290 | 8.0 | 14.5 | 0.00 | 0.00 | 0.00 | 80 | 1011.9 |
| 20260905043025 | 29 | 300 | 4.8 | 12.9 | 0.00 | 0.00 | 0.00 | 79 | 1011.9 |
| 20260905041517 | 29 | 339 | 6.4 | 11.3 | 0.00 | 0.00 | 0.00 | 79 | 1011.9 |
| 20260905040021 | 30 | 312 | 9.7 | 17.7 | 0.00 | 0.00 | 0.00 | 79 | 1012.0 |